Terminal Aerodrome Forecast
Issued by NWS Columbia, SC

Home | Current Version | Previous Version | Text Only | Print | Product List | Glossary On
Versions: 1 2 3 4 5 6 7 8 9 10 11 12 13 14 15 16 17 18 19 20 21 22 23 24 25 26 27 28 29 30 31 32 33 34 35 36 37 38 39 40 41 42 43 44 45 46 47
012
FTAK31 PAJN 292207 AAA
TAFAGS
TAF AMD
PAGS 292207Z 2922/3018 11007KT P6SM VCSH SCT040 OVC050
      TEMPO 2922/3002 -SHRA BKN025
     FM300600 12005KT P6SM SCT025 OVC040
     FM301400 12010KT P6SM -RA SCT020 OVC035
     FM301700 12012G25KT 6SM -RA BR BKN020 OVC040
      AMD LTD TO CLD VIS AND WIND=

USA.gov is the U.S. government's official web portal to all federal, state and local government web resources and services.